Time;durP1;ratioP1;P1;durP2;ratioP2;P2;SDS_P1;SDS_P2;PMS_P1;PMS_P2;Temp;Humidity;BMP_temperature;BMP_pressure;BME280_temperature;BME280_humidity;BME280_pressure;Samples;Min_cycle;Max_cycle;Signal;HPM_P1;HPM_P2
2021/09/28 00:00:52;;;;;;;4.72;1.70;;;;;;;;;;5021326;28;20417;-73
2021/09/28 00:03:18;;;;;;;2.05;1.58;;;;;;;;;;5020560;28;20026;-75
2021/09/28 00:05:45;;;;;;;6.28;1.90;;;;;;;;;;5020421;28;20095;-68
2021/09/28 00:08:11;;;;;;;2.78;1.80;;;;;;;;;;5005987;28;20117;-74
2021/09/28 00:10:37;;;;;;;8.80;2.90;;;;;;;;;;5000563;28;20119;-73
2021/09/28 00:13:05;;;;;;;8.73;2.63;;;;;;;;;;5001235;28;20018;-70
2021/09/28 00:15:32;;;;;;;4.22;1.80;;;;;;;;;;5002047;28;20019;-71
2021/09/28 00:17:58;;;;;;;7.35;2.67;;;;;;;;;;5001079;28;20045;-73
2021/09/28 00:20:24;;;;;;;2.47;1.63;;;;;;;;;;5005653;28;20087;-74
2021/09/28 00:22:53;;;;;;;4.28;1.80;;;;;;;;;;5021038;28;20036;-71
2021/09/28 00:25:20;;;;;;;2.63;1.90;;;;;;;;;;5021029;28;20032;-72
2021/09/28 00:27:46;;;;;;;4.35;1.70;;;;;;;;;;5021382;28;20120;-72
2021/09/28 00:30:12;;;;;;;7.53;2.10;;;;;;;;;;5022602;28;20033;-68
2021/09/28 00:32:39;;;;;;;3.65;2.25;;;;;;;;;;5024657;28;20085;-69
2021/09/28 00:35:05;;;;;;;3.40;1.77;;;;;;;;;;5026185;28;20021;-72
2021/09/28 00:37:31;;;;;;;4.47;1.80;;;;;;;;;;5026291;28;20465;-67
2021/09/28 00:39:57;;;;;;;1.75;1.50;;;;;;;;;;5025888;28;20480;-71
2021/09/28 00:42:23;;;;;;;4.45;1.58;;;;;;;;;;5024691;28;20062;-71
2021/09/28 00:44:49;;;;;;;3.40;1.48;;;;;;;;;;5021134;28;20100;-70
2021/09/28 00:47:16;;;;;;;4.55;1.77;;;;;;;;;;5020554;28;20030;-71
2021/09/28 00:49:46;;;;;;;4.80;1.70;;;;;;;;;;5020621;28;20037;-74
2021/09/28 00:52:13;;;;;;;6.13;1.98;;;;;;;;;;5018739;28;20026;-74
2021/09/28 00:54:39;;;;;;;4.43;1.88;;;;;;;;;;5011226;28;20030;-68
2021/09/28 00:57:06;;;;;;;8.00;2.20;;;;;;;;;;5021194;28;20022;-73
2021/09/28 00:59:34;;;;;;;5.35;1.98;;;;;;;;;;5021495;28;20021;-70
2021/09/28 01:02:00;;;;;;;5.68;1.80;;;;;;;;;;5020220;28;20472;-74
2021/09/28 01:04:26;;;;;;;4.05;1.73;;;;;;;;;;5001301;28;20046;-73
2021/09/28 01:06:52;;;;;;;2.55;1.85;;;;;;;;;;5006871;28;20026;-73
2021/09/28 01:09:19;;;;;;;3.20;1.70;;;;;;;;;;5019360;28;20057;-73
2021/09/28 01:11:45;;;;;;;4.03;2.00;;;;;;;;;;5000425;28;20031;-71
2021/09/28 01:14:11;;;;;;;5.55;2.13;;;;;;;;;;4999859;28;20023;-74
2021/09/28 01:16:37;;;;;;;4.53;1.88;;;;;;;;;;5001502;28;20022;-69
2021/09/28 01:19:03;;;;;;;5.00;1.75;;;;;;;;;;5001464;28;20032;-74
2021/09/28 01:21:29;;;;;;;3.38;1.60;;;;;;;;;;5002162;28;20516;-73
2021/09/28 01:23:56;;;;;;;2.78;2.00;;;;;;;;;;5002183;28;20018;-70
2021/09/28 01:26:26;;;;;;;5.07;2.53;;;;;;;;;;5000552;28;20104;-73
2021/09/28 01:28:53;;;;;;;4.30;2.05;;;;;;;;;;5000628;28;20473;-74
2021/09/28 01:31:19;;;;;;;5.28;1.85;;;;;;;;;;5000380;28;20023;-75
2021/09/28 01:33:45;;;;;;;4.18;1.85;;;;;;;;;;5001203;28;20068;-69
2021/09/28 01:36:12;;;;;;;3.35;1.90;;;;;;;;;;5007818;28;20030;-76
2021/09/28 01:38:38;;;;;;;10.35;2.20;;;;;;;;;;5019561;28;20083;-74
2021/09/28 01:41:04;;;;;;;3.30;1.70;;;;;;;;;;5020012;28;20030;-69
2021/09/28 01:43:31;;;;;;;7.72;1.95;;;;;;;;;;5020709;28;20048;-71
2021/09/28 01:45:58;;;;;;;3.30;2.13;;;;;;;;;;5021364;28;20088;-73
2021/09/28 01:48:44;;;;;;;4.60;2.00;;;;;;;;;;5020716;28;20029;-73
2021/09/28 01:51:10;;;;;;;3.15;1.67;;;;;;;;;;5020380;28;20022;-73
2021/09/28 01:53:39;;;;;;;8.70;2.08;;;;;;;;;;5019931;28;20091;-73
2021/09/28 01:56:05;;;;;;;2.17;1.85;;;;;;;;;;5019212;28;20042;-72
2021/09/28 01:58:34;;;;;;;3.50;1.70;;;;;;;;;;5019439;28;20022;-74
2021/09/28 02:01:00;;;;;;;3.58;1.83;;;;;;;;;;5021117;28;20037;-71
2021/09/28 02:03:26;;;;;;;6.28;2.00;;;;;;;;;;5020327;28;20488;-72
2021/09/28 02:05:52;;;;;;;4.47;1.70;;;;;;;;;;5021324;28;20104;-76
2021/09/28 02:08:18;;;;;;;4.95;1.75;;;;;;;;;;5024456;28;20031;-71
2021/09/28 02:10:44;;;;;;;7.13;1.92;;;;;;;;;;5023737;28;20090;-74
2021/09/28 02:13:10;;;;;;;11.73;2.63;;;;;;;;;;5025478;28;20065;-73
2021/09/28 02:15:37;;;;;;;4.47;1.73;;;;;;;;;;5027063;28;20025;-70
2021/09/28 02:18:03;;;;;;;6.05;1.60;;;;;;;;;;5028657;28;20018;-71
2021/09/28 02:20:29;;;;;;;6.80;1.92;;;;;;;;;;5027662;28;20481;-71
2021/09/28 02:22:55;;;;;;;3.63;1.48;;;;;;;;;;5027947;28;20093;-68
2021/09/28 02:25:23;;;;;;;9.75;2.17;;;;;;;;;;5026602;28;20026;-70
2021/09/28 02:27:49;;;;;;;3.20;1.45;;;;;;;;;;5024164;28;20025;-74
2021/09/28 02:30:15;;;;;;;5.55;2.63;;;;;;;;;;5020039;28;20108;-72
2021/09/28 02:32:41;;;;;;;3.10;1.50;;;;;;;;;;5019877;28;20022;-69
2021/09/28 02:35:07;;;;;;;5.03;1.70;;;;;;;;;;5022028;28;20018;-74
2021/09/28 02:37:33;;;;;;;7.00;2.00;;;;;;;;;;5016922;28;20021;-72
2021/09/28 02:40:00;;;;;;;6.35;2.63;;;;;;;;;;5020798;28;20026;-74
2021/09/28 02:42:26;;;;;;;4.00;1.73;;;;;;;;;;5021762;28;20172;-72
2021/09/28 02:44:55;;;;;;;6.25;2.17;;;;;;;;;;5025184;28;20022;-74
2021/09/28 02:47:21;;;;;;;3.35;1.90;;;;;;;;;;5024787;28;20392;-71
2021/09/28 02:49:47;;;;;;;4.72;1.88;;;;;;;;;;5023990;28;20511;-73
2021/09/28 02:52:14;;;;;;;5.28;2.03;;;;;;;;;;5023716;28;20238;-73
2021/09/28 02:54:40;;;;;;;2.40;1.70;;;;;;;;;;5021627;28;20029;-75
2021/09/28 02:57:06;;;;;;;9.02;2.53;;;;;;;;;;5005259;28;20022;-73
2021/09/28 02:59:32;;;;;;;5.10;1.95;;;;;;;;;;5004814;28;20026;-74
2021/09/28 03:01:58;;;;;;;5.80;2.15;;;;;;;;;;5018015;28;20050;-69
2021/09/28 03:04:24;;;;;;;5.15;1.70;;;;;;;;;;5023211;28;20061;-75
2021/09/28 03:06:50;;;;;;;8.23;2.22;;;;;;;;;;5023440;28;20065;-72
2021/09/28 03:09:17;;;;;;;5.85;1.80;;;;;;;;;;5023720;28;20030;-71
2021/09/28 03:11:43;;;;;;;3.83;1.95;;;;;;;;;;5023559;28;20025;-74
2021/09/28 03:14:09;;;;;;;5.30;2.28;;;;;;;;;;5019050;28;20057;-68
2021/09/28 03:16:35;;;;;;;8.27;2.10;;;;;;;;;;5020759;28;20029;-72
2021/09/28 03:19:01;;;;;;;6.18;1.83;;;;;;;;;;5023669;28;20026;-72
2021/09/28 03:21:27;;;;;;;4.13;1.70;;;;;;;;;;5023812;28;20073;-74
2021/09/28 03:23:53;;;;;;;6.78;2.40;;;;;;;;;;5024072;28;20026;-70
2021/09/28 03:26:19;;;;;;;4.45;2.38;;;;;;;;;;5023083;28;20088;-76
2021/09/28 03:28:45;;;;;;;9.30;2.38;;;;;;;;;;5021394;28;20109;-74
2021/09/28 03:31:11;;;;;;;6.40;1.90;;;;;;;;;;5023639;28;20048;-73
2021/09/28 03:33:37;;;;;;;3.50;1.67;;;;;;;;;;5020302;28;20038;-76
2021/09/28 03:36:04;;;;;;;3.88;1.95;;;;;;;;;;5024088;28;20160;-70
2021/09/28 03:38:30;;;;;;;6.88;1.90;;;;;;;;;;5024532;28;20057;-74
2021/09/28 03:40:56;;;;;;;10.00;2.95;;;;;;;;;;5025953;28;20370;-71
2021/09/28 03:43:22;;;;;;;8.98;2.13;;;;;;;;;;5018668;28;20030;-73
2021/09/28 03:45:48;;;;;;;5.07;2.47;;;;;;;;;;5015833;28;20037;-70
2021/09/28 03:48:14;;;;;;;4.18;2.20;;;;;;;;;;5024772;28;20053;-73
2021/09/28 03:50:41;;;;;;;8.48;2.40;;;;;;;;;;5024635;28;20022;-72
2021/09/28 03:53:07;;;;;;;6.07;2.15;;;;;;;;;;5023269;28;20022;-73
2021/09/28 03:55:33;;;;;;;3.58;2.33;;;;;;;;;;5023466;28;20078;-72
2021/09/28 03:58:01;;;;;;;7.40;2.97;;;;;;;;;;5025439;28;20054;-70
2021/09/28 04:00:27;;;;;;;6.50;2.20;;;;;;;;;;5024784;28;20049;-76
2021/09/28 04:02:53;;;;;;;6.30;2.42;;;;;;;;;;5024043;28;20473;-74
2021/09/28 04:05:20;;;;;;;4.18;2.42;;;;;;;;;;5024358;28;20549;-74
2021/09/28 04:07:46;;;;;;;7.13;2.53;;;;;;;;;;5023583;28;20091;-69
2021/09/28 04:10:12;;;;;;;4.53;2.40;;;;;;;;;;5023203;28;20040;-72
2021/09/28 04:12:38;;;;;;;3.45;2.22;;;;;;;;;;5023371;28;20049;-71
2021/09/28 04:15:06;;;;;;;6.72;2.17;;;;;;;;;;5023715;28;20030;-72
2021/09/28 04:17:32;;;;;;;6.00;2.40;;;;;;;;;;5023472;28;20408;-76
2021/09/28 04:19:58;;;;;;;4.05;2.35;;;;;;;;;;5021790;28;20379;-75
2021/09/28 04:22:24;;;;;;;9.38;2.90;;;;;;;;;;5024812;28;20065;-70
2021/09/28 04:24:51;;;;;;;4.40;2.15;;;;;;;;;;5011170;28;20544;-72
2021/09/28 04:27:18;;;;;;;6.72;2.22;;;;;;;;;;5019265;28;20076;-69
2021/09/28 04:29:44;;;;;;;7.07;2.97;;;;;;;;;;5023420;28;20037;-74
2021/09/28 04:32:10;;;;;;;5.55;2.20;;;;;;;;;;5022775;28;20473;-74
2021/09/28 04:34:37;;;;;;;6.05;2.08;;;;;;;;;;5023034;28;20121;-69
2021/09/28 04:37:03;;;;;;;9.70;2.70;;;;;;;;;;5022392;28;20014;-69
2021/09/28 04:39:29;;;;;;;5.63;2.85;;;;;;;;;;5025798;28;20029;-68
2021/09/28 04:41:55;;;;;;;4.25;2.40;;;;;;;;;;5025818;28;20026;-69
2021/09/28 04:44:21;;;;;;;5.43;2.67;;;;;;;;;;5025711;28;20163;-67
2021/09/28 04:46:48;;;;;;;4.00;2.17;;;;;;;;;;5025917;28;20026;-76
2021/09/28 04:49:14;;;;;;;4.53;2.13;;;;;;;;;;5026082;28;20030;-69
2021/09/28 04:51:40;;;;;;;5.95;2.40;;;;;;;;;;5026239;28;20033;-73
2021/09/28 04:54:07;;;;;;;6.10;2.45;;;;;;;;;;5025607;28;20025;-71
2021/09/28 04:56:33;;;;;;;6.32;1.88;;;;;;;;;;5014134;28;20089;-74
2021/09/28 04:58:59;;;;;;;5.57;2.53;;;;;;;;;;5021924;28;20412;-68
2021/09/28 05:01:25;;;;;;;4.82;1.80;;;;;;;;;;5023988;28;20037;-74
2021/09/28 05:03:51;;;;;;;10.20;2.30;;;;;;;;;;5024463;28;20050;-73
2021/09/28 05:06:17;;;;;;;5.72;2.17;;;;;;;;;;5024900;28;20033;-69
2021/09/28 05:08:43;;;;;;;6.05;2.40;;;;;;;;;;5020633;28;20062;-74
2021/09/28 05:11:11;;;;;;;5.60;1.73;;;;;;;;;;5009865;28;20026;-72
2021/09/28 05:13:37;;;;;;;8.18;2.13;;;;;;;;;;5002206;28;20022;-68
2021/09/28 05:16:03;;;;;;;7.10;2.88;;;;;;;;;;5000232;28;20064;-73
2021/09/28 05:18:29;;;;;;;4.85;2.15;;;;;;;;;;5001508;28;20065;-70
2021/09/28 05:20:55;;;;;;;7.40;2.38;;;;;;;;;;5003873;28;20034;-70
2021/09/28 05:23:21;;;;;;;3.95;2.08;;;;;;;;;;5022254;28;20037;-71
2021/09/28 05:25:47;;;;;;;6.13;2.70;;;;;;;;;;5023644;28;20160;-74
2021/09/28 05:28:13;;;;;;;7.63;3.17;;;;;;;;;;5021548;28;20495;-68
2021/09/28 05:30:43;;;;;;;7.05;2.05;;;;;;;;;;5020675;28;20080;-74
2021/09/28 05:33:10;;;;;;;7.25;2.35;;;;;;;;;;5021802;28;20386;-73
2021/09/28 05:35:36;;;;;;;3.22;2.75;;;;;;;;;;5022146;28;20022;-70
2021/09/28 05:38:02;;;;;;;5.53;2.00;;;;;;;;;;5015802;28;20014;-73
2021/09/28 05:40:28;;;;;;;9.35;2.92;;;;;;;;;;5021179;28;20034;-74
2021/09/28 05:42:54;;;;;;;4.32;2.30;;;;;;;;;;5019648;28;20037;-69
2021/09/28 05:45:20;;;;;;;7.53;2.10;;;;;;;;;;5020005;28;20062;-74
2021/09/28 05:47:48;;;;;;;6.60;3.20;;;;;;;;;;5023003;28;20081;-69
2021/09/28 05:50:14;;;;;;;6.32;3.40;;;;;;;;;;5022402;28;20036;-74
2021/09/28 05:52:40;;;;;;;3.08;1.70;;;;;;;;;;5020928;28;20026;-69
2021/09/28 05:55:07;;;;;;;6.35;2.28;;;;;;;;;;5021380;28;20091;-72
2021/09/28 05:57:33;;;;;;;8.48;2.17;;;;;;;;;;5020357;28;20022;-74
2021/09/28 05:59:59;;;;;;;7.85;2.22;;;;;;;;;;5020203;28;20067;-69
2021/09/28 06:02:25;;;;;;;6.68;2.45;;;;;;;;;;5016559;28;20032;-74
2021/09/28 06:04:51;;;;;;;8.18;2.33;;;;;;;;;;5005005;28;20056;-73
2021/09/28 06:07:18;;;;;;;6.75;2.30;;;;;;;;;;5020839;28;20451;-71
2021/09/28 06:09:44;;;;;;;7.88;2.58;;;;;;;;;;5019599;28;20033;-75
2021/09/28 06:12:11;;;;;;;8.45;2.17;;;;;;;;;;5019496;28;20048;-73
2021/09/28 06:14:37;;;;;;;5.50;2.55;;;;;;;;;;5019785;28;20420;-69
2021/09/28 06:17:04;;;;;;;8.23;2.45;;;;;;;;;;5022147;28;20504;-75
2021/09/28 06:19:31;;;;;;;5.68;2.22;;;;;;;;;;5019939;28;20029;-72
2021/09/28 06:21:58;;;;;;;3.42;1.83;;;;;;;;;;5020390;28;20111;-72
2021/09/28 06:24:24;;;;;;;5.28;1.95;;;;;;;;;;5018622;28;20127;-74
2021/09/28 06:26:50;;;;;;;7.70;2.20;;;;;;;;;;5018637;28;20030;-74
2021/09/28 06:29:17;;;;;;;4.97;1.92;;;;;;;;;;5018497;28;20045;-71
2021/09/28 06:31:43;;;;;;;6.45;2.03;;;;;;;;;;5019923;28;20064;-69
2021/09/28 06:34:10;;;;;;;5.03;2.13;;;;;;;;;;5022055;28;20465;-74
2021/09/28 06:36:37;;;;;;;6.97;2.30;;;;;;;;;;5020818;28;20022;-69
2021/09/28 06:39:03;;;;;;;3.10;1.88;;;;;;;;;;5022616;28;20292;-72
2021/09/28 06:41:30;;;;;;;8.02;3.00;;;;;;;;;;5021202;28;20026;-73
2021/09/28 06:43:56;;;;;;;7.10;2.50;;;;;;;;;;5019879;28;20033;-73
2021/09/28 06:46:22;;;;;;;4.18;2.47;;;;;;;;;;5017303;28;20026;-76
2021/09/28 06:48:48;;;;;;;10.40;2.38;;;;;;;;;;5018695;28;20436;-70
2021/09/28 06:51:15;;;;;;;5.72;2.40;;;;;;;;;;5018902;28;20029;-71
2021/09/28 06:53:41;;;;;;;8.57;2.30;;;;;;;;;;5019903;28;20116;-71
2021/09/28 06:56:07;;;;;;;7.03;2.15;;;;;;;;;;5024155;28;20050;-68
2021/09/28 06:58:34;;;;;;;3.72;1.90;;;;;;;;;;5023584;28;20025;-67
2021/09/28 07:01:00;;;;;;;7.38;2.03;;;;;;;;;;5022291;28;20061;-68
2021/09/28 07:03:26;;;;;;;10.27;2.60;;;;;;;;;;5025464;28;20034;-68
2021/09/28 07:05:53;;;;;;;5.68;2.10;;;;;;;;;;5025486;28;20029;-68
2021/09/28 07:08:19;;;;;;;8.48;2.20;;;;;;;;;;5021722;28;20026;-72
2021/09/28 07:10:45;;;;;;;4.43;1.90;;;;;;;;;;5016445;28;20098;-71
2021/09/28 07:13:11;;;;;;;5.70;3.17;;;;;;;;;;5000142;28;20034;-67
2021/09/28 07:15:38;;;;;;;7.03;1.85;;;;;;;;;;5005966;28;20137;-71
2021/09/28 07:18:05;;;;;;;8.73;1.70;;;;;;;;;;5009134;28;20040;-73
2021/09/28 07:20:31;;;;;;;4.05;2.30;;;;;;;;;;5013189;28;20500;-68
2021/09/28 07:22:57;;;;;;;5.28;1.98;;;;;;;;;;5012968;28;20036;-74
2021/09/28 07:25:23;;;;;;;2.72;1.70;;;;;;;;;;5014389;28;20091;-71
2021/09/28 07:27:49;;;;;;;4.35;2.05;;;;;;;;;;5012335;28;20029;-69
2021/09/28 07:30:16;;;;;;;4.25;2.10;;;;;;;;;;5020026;28;20025;-67
2021/09/28 07:32:42;;;;;;;5.82;1.88;;;;;;;;;;5011382;28;20077;-73
2021/09/28 07:35:08;;;;;;;6.53;1.88;;;;;;;;;;4999275;28;20101;-73
2021/09/28 07:37:35;;;;;;;3.42;1.88;;;;;;;;;;5000777;28;20080;-67
2021/09/28 07:40:01;;;;;;;6.13;2.28;;;;;;;;;;5016391;28;20025;-73
2021/09/28 07:42:27;;;;;;;11.50;2.45;;;;;;;;;;4999999;28;20034;-71
2021/09/28 07:44:56;;;;;;;5.85;1.98;;;;;;;;;;4996989;28;20042;-74
2021/09/28 07:47:23;;;;;;;2.53;1.70;;;;;;;;;;5012137;28;20030;-71
2021/09/28 07:49:49;;;;;;;3.85;1.92;;;;;;;;;;5017562;28;20034;-74
2021/09/28 07:52:15;;;;;;;8.35;2.47;;;;;;;;;;5015096;28;20036;-72
2021/09/28 07:54:41;;;;;;;3.30;1.92;;;;;;;;;;5004937;28;20163;-69
2021/09/28 07:57:11;;;;;;;7.05;2.30;;;;;;;;;;5008325;28;20015;-71
2021/09/28 07:59:38;;;;;;;3.00;1.58;;;;;;;;;;5016852;28;20026;-70
2021/09/28 08:02:04;;;;;;;5.93;2.22;;;;;;;;;;5023974;28;20044;-74
2021/09/28 08:04:30;;;;;;;3.58;1.60;;;;;;;;;;5011831;28;20085;-68
2021/09/28 08:06:56;;;;;;;5.10;1.70;;;;;;;;;;5012810;28;20025;-73
2021/09/28 08:09:23;;;;;;;4.50;1.50;;;;;;;;;;5000622;28;20068;-73
2021/09/28 08:11:49;;;;;;;6.05;1.90;;;;;;;;;;5006496;28;20054;-74
2021/09/28 08:14:17;;;;;;;12.35;2.10;;;;;;;;;;5012733;28;20048;-74
2021/09/28 08:16:43;;;;;;;3.05;1.50;;;;;;;;;;5004654;28;20030;-73
2021/09/28 08:19:09;;;;;;;3.30;1.63;;;;;;;;;;5009938;28;20030;-73
2021/09/28 08:21:35;;;;;;;4.25;1.60;;;;;;;;;;5015321;28;20108;-73
2021/09/28 08:24:02;;;;;;;6.95;1.98;;;;;;;;;;5006354;28;20358;-74
2021/09/28 08:29:10;;;;;;;2.67;1.58;;;;;;;;;;5005655;28;20588;-72
2021/09/28 08:31:43;;;;;;;4.53;2.15;;;;;;;;;;5009438;28;20041;-73
2021/09/28 08:34:13;;;;;;;4.53;1.63;;;;;;;;;;5008202;28;20042;-71
2021/09/28 08:36:39;;;;;;;7.45;2.78;;;;;;;;;;4998072;28;20109;-74
2021/09/28 08:39:08;;;;;;;2.63;2.00;;;;;;;;;;5003149;28;20085;-74
2021/09/28 08:41:34;;;;;;;4.43;2.42;;;;;;;;;;5008198;28;20390;-73
2021/09/28 08:44:00;;;;;;;3.50;1.73;;;;;;;;;;5007262;28;20082;-71
2021/09/28 08:46:27;;;;;;;6.47;1.90;;;;;;;;;;5017556;28;20026;-76
2021/09/28 08:48:53;;;;;;;5.35;2.00;;;;;;;;;;5005497;28;20023;-69
2021/09/28 08:51:19;;;;;;;3.65;1.80;;;;;;;;;;5001916;28;20408;-76
2021/09/28 08:53:45;;;;;;;7.82;1.80;;;;;;;;;;5014338;28;20025;-68
2021/09/28 08:56:14;;;;;;;2.88;1.70;;;;;;;;;;5020791;28;20129;-73
2021/09/28 08:59:02;;;;;;;2.65;1.70;;;;;;;;;;5013099;28;20030;-70
2021/09/28 09:01:29;;;;;;;5.18;1.92;;;;;;;;;;5007822;28;20037;-75
2021/09/28 09:03:55;;;;;;;2.85;1.90;;;;;;;;;;5000836;28;20054;-73
2021/09/28 09:06:33;;;;;;;3.28;1.95;;;;;;;;;;5013951;28;20503;-66
2021/09/28 09:09:03;;;;;;;6.30;2.35;;;;;;;;;;5007566;28;20041;-66
2021/09/28 09:11:34;;;;;;;5.47;1.98;;;;;;;;;;5013064;28;20444;-73
2021/09/28 09:14:11;;;;;;;3.22;2.05;;;;;;;;;;5005440;28;20037;-68
2021/09/28 09:16:37;;;;;;;4.07;1.83;;;;;;;;;;5020104;28;20030;-66
2021/09/28 09:19:30;;;;;;;2.53;1.80;;;;;;;;;;5023835;28;20029;-66
2021/09/28 09:21:57;;;;;;;4.90;1.48;;;;;;;;;;5004429;28;20054;-73
2021/09/28 09:24:42;;;;;;;1.55;1.45;;;;;;;;;;5004678;28;20045;-75
2021/09/28 09:27:12;;;;;;;2.47;1.40;;;;;;;;;;5000043;28;20046;-73
2021/09/28 09:29:39;;;;;;;3.03;2.42;;;;;;;;;;5009429;28;20038;-71
2021/09/28 09:32:05;;;;;;;4.15;1.60;;;;;;;;;;5007106;28;20393;-72
2021/09/28 09:34:31;;;;;;;3.40;1.83;;;;;;;;;;5013707;28;20034;-65
2021/09/28 09:36:57;;;;;;;4.05;1.90;;;;;;;;;;5006213;28;20064;-74
2021/09/28 09:39:26;;;;;;;3.70;1.67;;;;;;;;;;5002266;28;20053;-74
2021/09/28 09:42:07;;;;;;;5.25;2.25;;;;;;;;;;4996965;28;20072;-72
2021/09/28 09:44:33;;;;;;;2.88;1.58;;;;;;;;;;5006257;28;20060;-73
2021/09/28 09:47:00;;;;;;;2.05;1.67;;;;;;;;;;5022765;28;20112;-73
2021/09/28 09:49:36;;;;;;;3.40;1.73;;;;;;;;;;5020198;28;20038;-73
2021/09/28 09:52:09;;;;;;;2.63;1.60;;;;;;;;;;5002946;28;20049;-73
2021/09/28 09:54:37;;;;;;;4.82;1.80;;;;;;;;;;4997758;28;20034;-71
2021/09/28 09:57:04;;;;;;;1.95;1.77;;;;;;;;;;4994113;28;20469;-74
2021/09/28 09:59:31;;;;;;;5.95;1.80;;;;;;;;;;5005593;28;20089;-65
2021/09/28 10:01:57;;;;;;;2.88;1.80;;;;;;;;;;5009545;28;20313;-70
2021/09/28 10:04:24;;;;;;;2.97;1.58;;;;;;;;;;5006470;28;20062;-74
2021/09/28 10:06:51;;;;;;;1.90;1.40;;;;;;;;;;4999281;28;20393;-69
2021/09/28 10:09:22;;;;;;;1.70;1.33;;;;;;;;;;4999653;28;20022;-71
2021/09/28 10:11:56;;;;;;;8.05;2.65;;;;;;;;;;5004443;28;20018;-71
2021/09/28 10:14:31;;;;;;;4.25;1.52;;;;;;;;;;5002792;28;20485;-71
2021/09/28 10:16:59;;;;;;;;;;;;;;;;;;5012634;28;20509;-70
2021/09/28 10:19:28;;;;;;;;;;;;;;;;;;5005461;28;20368;-72
2021/09/28 10:21:54;;;;;;;;;;;;;;;;;;5019927;28;20484;-73
2021/09/28 10:24:20;;;;;;;;;;;;;;;;;;5004328;28;19914;-73
2021/09/28 10:26:46;;;;;;;;;;;;;;;;;;5002469;28;19910;-66
2021/09/28 10:29:12;;;;;;;;;;;;;;;;;;5008187;28;19918;-74
2021/09/28 10:31:38;;;;;;;;;;;;;;;;;;5005314;28;19956;-72
2021/09/28 10:34:04;;;;;;;;;;;;;;;;;;5016113;28;20392;-68
2021/09/28 10:36:29;;;;;;;;;;;;;;;;;;5003866;28;19910;-69
2021/09/28 10:38:58;;;;;;;;;;;;;;;;;;5004404;28;19905;-73
2021/09/28 10:41:24;;;;;;;;;;;;;;;;;;5005625;28;19913;-73
2021/09/28 10:43:50;;;;;;;;;;;;;;;;;;5002678;28;19912;-68
2021/09/28 10:46:16;;;;;;;;;;;;;;;;;;4997340;28;19913;-73
2021/09/28 10:48:42;;;;;;;;;;;;;;;;;;4996280;28;20013;-69
2021/09/28 10:51:09;;;;;;;;;;;;;;;;;;5000347;28;20398;-73
2021/09/28 10:53:35;;;;;;;;;;;;;;;;;;5022945;28;19916;-75
2021/09/28 10:56:01;;;;;;;;;;;;;;;;;;5012798;28;19984;-69
2021/09/28 10:58:27;;;;;;;;;;;;;;;;;;5000184;28;19916;-68
2021/09/28 11:00:53;;;;;;;;;;;;;;;;;;5013373;28;19905;-71
2021/09/28 11:03:19;;;;;;;;;;;;;;;;;;5023782;28;19905;-68
2021/09/28 11:05:45;;;;;;;;;;;;;;;;;;5026967;28;20391;-66
2021/09/28 11:08:12;;;;;;;;;;;;;;;;;;5022311;28;19910;-65
2021/09/28 11:10:38;;;;;;;;;;;;;;;;;;5028952;28;19909;-65
2021/09/28 11:13:04;;;;;;;;;;;;;;;;;;5028371;28;19932;-72
2021/09/28 11:15:30;;;;;;;;;;;;;;;;;;5025272;28;19969;-72
2021/09/28 11:17:56;;;;;;;;;;;;;;;;;;5012808;28;20022;-70
2021/09/28 11:20:22;;;;;;;;;;;;;;;;;;5017271;28;19979;-72
2021/09/28 11:22:48;;;;;;;;;;;;;;;;;;5011613;28;19910;-74
2021/09/28 11:25:15;;;;;;;;;;;;;;;;;;5007795;28;19953;-69
2021/09/28 11:27:41;;;;;;;;;;;;;;;;;;5007821;28;19913;-68
2021/09/28 11:30:07;;;;;;;;;;;;;;;;;;5017980;28;19909;-70
2021/09/28 11:32:33;;;;;;;;;;;;;;;;;;5013786;28;19960;-69
2021/09/28 11:35:05;;;;;;;;;;;;;;;;;;5009563;28;19910;-69
2021/09/28 11:37:31;;;;;;;;;;;;;;;;;;5008073;28;19996;-72
2021/09/28 11:39:57;;;;;;;;;;;;;;;;;;5030959;28;19905;-66
2021/09/28 11:42:24;;;;;;;;;;;;;;;;;;5030895;28;19956;-70
2021/09/28 11:44:50;;;;;;;;;;;;;;;;;;5029965;28;19905;-72
2021/09/28 11:47:16;;;;;;;;;;;;;;;;;;5022652;28;19910;-72
2021/09/28 11:49:41;;;;;;;;;;;;;;;;;;5017945;28;19917;-73
2021/09/28 11:52:07;;;;;;;;;;;;;;;;;;5010084;28;19917;-71
2021/09/28 11:54:33;;;;;;;;;;;;;;;;;;5019807;28;19913;-68
2021/09/28 11:57:00;;;;;;;;;;;;;;;;;;5027003;28;19905;-74
2021/09/28 11:59:26;;;;;;;;;;;;;;;;;;5016530;28;19917;-73
2021/09/28 12:01:53;;;;;;;;;;;;;;;;;;5021979;28;19931;-68
2021/09/28 12:09:43;;;;;;;;;;;;;;;;;;5010790;28;19961;-69
2021/09/28 12:12:09;;;;;;;;;;;;;;;;;;5027123;28;19960;-68
2021/09/28 12:14:35;;;;;;;;;;;;;;;;;;5026893;28;19916;-69
2021/09/28 12:17:00;;;;;;;;;;;;;;;;;;5024647;28;19913;-68
2021/09/28 12:19:26;;;;;;;;;;;;;;;;;;5025221;28;19916;-69
2021/09/28 12:21:52;;;;;;;;;;;;;;;;;;5027493;28;19905;-69
2021/09/28 12:24:19;;;;;;;;;;;;;;;;;;5026965;28;19961;-69
2021/09/28 12:26:45;;;;;;;;;;;;;;;;;;5027566;28;19910;-68
2021/09/28 12:29:11;;;;;;;;;;;;;;;;;;5024381;28;19905;-73
2021/09/28 12:31:36;;;;;;;;;;;;;;;;;;5019439;28;19936;-69
2021/09/28 12:34:02;;;;;;;;;;;;;;;;;;5015538;28;20237;-74
2021/09/28 12:36:28;;;;;;;;;;;;;;;;;;5016330;28;19905;-78
2021/09/28 12:38:54;;;;;;;;;;;;;;;;;;5005015;28;20364;-76
2021/09/28 12:41:22;;;;;;;;;;;;;;;;;;4996018;28;19906;-76
2021/09/28 12:43:47;;;;;;;;;;;;;;;;;;4996723;28;19916;-74
2021/09/28 12:46:13;;;;;;;;;;;;;;;;;;4995749;28;20369;-68
2021/09/28 12:48:40;;;;;;;;;;;;;;;;;;4995020;28;20116;-76
2021/09/28 12:51:06;;;;;;;;;;;;;;;;;;4995370;28;19945;-76
2021/09/28 12:53:32;;;;;;;;;;;;;;;;;;4994988;28;19917;-70
2021/09/28 12:55:58;;;;;;;;;;;;;;;;;;4995310;28;19909;-77
2021/09/28 12:58:24;;;;;;;;;;;;;;;;;;4995553;28;19913;-76
2021/09/28 13:00:50;;;;;;;;;;;;;;;;;;4995972;28;19909;-71
2021/09/28 13:03:16;;;;;;;;;;;;;;;;;;4998034;28;19909;-75
2021/09/28 13:05:44;;;;;;;;;;;;;;;;;;5006195;28;19925;-66
2021/09/28 13:08:10;;;;;;;;;;;;;;;;;;5006737;28;19906;-66
2021/09/28 13:10:36;;;;;;;;;;;;;;;;;;4997037;28;19910;-72
2021/09/28 13:13:02;;;;;;;;;;;;;;;;;;4997816;28;19909;-75
2021/09/28 13:15:28;;;;;;;;;;;;;;;;;;5016004;28;19905;-71
2021/09/28 13:17:57;;;;;;;;;;;;;;;;;;5020914;28;19960;-69
2021/09/28 13:20:23;;;;;;;;;;;;;;;;;;5022715;28;19905;-69
2021/09/28 13:22:49;;;;;;;;;;;;;;;;;;5024289;28;19906;-69
2021/09/28 13:25:15;;;;;;;;;;;;;;;;;;5001793;28;20039;-77
2021/09/28 13:27:41;;;;;;;;;;;;;;;;;;4995465;28;19910;-73
2021/09/28 13:30:06;;;;;;;;;;;;;;;;;;5001636;28;19984;-78
2021/09/28 13:32:35;;;;;;;;;;;;;;;;;;5023758;28;19905;-68
2021/09/28 13:35:04;;;;;;;;;;;;;;;;;;5027424;28;19905;-70
2021/09/28 13:37:30;;;;;;;;;;;;;;;;;;5027740;28;19912;-68
2021/09/28 13:39:56;;;;;;;;;;;;;;;;;;5027047;28;19906;-66
2021/09/28 13:42:22;;;;;;;;;;;;;;;;;;5027296;28;19942;-67
2021/09/28 13:44:48;;;;;;;;;;;;;;;;;;5027123;28;19906;-66
2021/09/28 13:47:14;;;;;;;;;;;;;;;;;;5026500;28;19912;-72
2021/09/28 13:49:43;;;;;;;;;;;;;;;;;;5025242;28;19960;-69
2021/09/28 13:52:16;;;;;;;;;;;;;;;;;;5023132;28;19905;-68
2021/09/28 13:54:42;;;;;;;;;;;;;;;;;;5016290;28;19912;-67
2021/09/28 13:57:08;;;;;;;;;;;;;;;;;;5023476;28;19905;-75
2021/09/28 13:59:35;;;;;;;;;;;;;;;;;;5017071;28;19909;-73
2021/09/28 14:02:01;;;;;;;;;;;;;;;;;;5013988;28;19909;-76
2021/09/28 14:04:27;;;;;;;;;;;;;;;;;;4994771;28;19924;-74
2021/09/28 14:06:53;;;;;;;;;;;;;;;;;;5003686;28;20007;-69
2021/09/28 14:09:20;;;;;;;;;;;;;;;;;;5014881;28;20349;-79
2021/09/28 14:11:46;;;;;;;;;;;;;;;;;;5006987;28;20323;-76
2021/09/28 14:14:12;;;;;;;;;;;;;;;;;;4995503;28;19913;-76
2021/09/28 14:16:38;;;;;;;;;;;;;;;;;;5015110;28;19955;-76
2021/09/28 14:19:07;;;;;;;;;;;;;;;;;;5015961;28;19909;-75
2021/09/28 14:21:33;;;;;;;;;;;;;;;;;;5021777;28;20370;-68
2021/09/28 14:23:59;;;;;;;;;;;;;;;;;;5024559;28;19905;-66
2021/09/28 14:26:25;;;;;;;;;;;;;;;;;;5022034;28;19916;-70
2021/09/28 14:28:51;;;;;;;;;;;;;;;;;;5023801;28;19905;-66
2021/09/28 14:31:17;;;;;;;;;;;;;;;;;;5024768;28;19917;-73
2021/09/28 14:33:43;;;;;;;;;;;;;;;;;;5021375;28;19959;-74
2021/09/28 14:36:09;;;;;;;;;;;;;;;;;;5021097;28;20324;-68
2021/09/28 14:38:35;;;;;;;;;;;;;;;;;;5022718;28;20368;-69
2021/09/28 14:41:03;;;;;;;;;;;;;;;;;;5022306;28;19940;-71
2021/09/28 14:43:28;;;;;;;;;;;;;;;;;;5025519;28;19948;-66
2021/09/28 14:45:54;;;;;;;;;;;;;;;;;;5024510;28;19909;-69
2021/09/28 14:48:20;;;;;;;;;;;;;;;;;;5024234;28;19906;-68
2021/09/28 14:50:46;;;;;;;;;;;;;;;;;;5025486;28;19917;-65
2021/09/28 14:53:12;;;;;;;;;;;;;;;;;;5025439;28;19945;-72
2021/09/28 14:55:38;;;;;;;;;;;;;;;;;;5026174;28;19910;-66
2021/09/28 14:58:04;;;;;;;;;;;;;;;;;;5024612;28;19906;-71
2021/09/28 15:00:30;;;;;;;;;;;;;;;;;;5024861;28;19913;-73
2021/09/28 15:03:00;;;;;;;;;;;;;;;;;;5025112;28;19905;-66
2021/09/28 15:05:26;;;;;;;;;;;;;;;;;;5020358;28;20265;-70
2021/09/28 15:07:52;;;;;;;;;;;;;;;;;;5015727;28;19932;-66
2021/09/28 15:10:18;;;;;;;;;;;;;;;;;;5012175;28;19963;-72
2021/09/28 15:12:44;;;;;;;;;;;;;;;;;;5008852;28;20204;-70
2021/09/28 15:15:10;;;;;;;;;;;;;;;;;;5005928;28;19910;-71
2021/09/28 15:17:36;;;;;;;;;;;;;;;;;;5005092;28;19999;-70
2021/09/28 15:20:02;;;;;;;;;;;;;;;;;;5004343;28;19941;-67
2021/09/28 15:22:28;;;;;;;;;;;;;;;;;;5019756;28;19906;-68
2021/09/28 15:24:54;;;;;;;;;;;;;;;;;;5021968;28;19910;-64